Sevenpersons, Canada
Current Conditions -  °F | °C
As of 8:00 AM on Monday 24 Nov 2014 (Local Time) from CYXH Reporting Station
Broken Clouds Broken Clouds  
Wind Chill: -4°   Ceiling: 9500
Heat Index: -1°   Visibility: 30mi
Dew Point: -3°   Wind: 6mph
Humidity: 86%   Direction: 230°SW
Pressure: 30.01"   Gusts: NA
Location:  49.87°N, 110.9°W
Report Text: CYXH 241500Z 23005KT 30SM SCT065 BKN095 M01/M03 A3001 RMK SC4AC3 SLP190
Loading
Personal Weather Stations






























Interactive Weather Map New forecast layout! Learn more

10-Day Weather Forecast

Advertisements
Track Severe Weather on mobile